createdAt,value
2023-01-31T00:01:29.698Z,96294.78
2023-01-31T00:04:05.600Z,96299.06
2023-01-31T00:06:35.485Z,96289.94
2023-01-31T00:09:04.380Z,96299.09
2023-01-31T00:11:32.673Z,96291.38
2023-01-31T00:14:02.237Z,96292.69
2023-01-31T00:16:29.927Z,96290.06
2023-01-31T00:18:57.620Z,96299.28
2023-01-31T00:21:29.906Z,96305.25
2023-01-31T00:23:59.564Z,96305.25
2023-01-31T00:26:30.111Z,96309.25
2023-01-31T00:28:59.614Z,96302.38
2023-01-31T00:31:29.282Z,96301.22
2023-01-31T00:33:57.443Z,96289.00
2023-01-31T00:36:28.957Z,96292.91
2023-01-31T00:38:58.638Z,96296.00
2023-01-31T00:41:27.992Z,96289.84
2023-01-31T00:43:55.739Z,96280.81
2023-01-31T00:46:24.839Z,96290.28
2023-01-31T00:48:53.087Z,96298.34
2023-01-31T00:51:22.313Z,96300.31
2023-01-31T00:53:51.543Z,96293.00
2023-01-31T00:56:23.129Z,96297.16
2023-01-31T00:58:51.726Z,96285.06
2023-01-31T01:01:23.035Z,96286.00
2023-01-31T01:03:52.123Z,96291.88
2023-01-31T01:06:20.556Z,96295.41
2023-01-31T01:08:49.065Z,96295.63
2023-01-31T01:11:21.452Z,96297.44
2023-01-31T01:13:49.577Z,96305.38
2023-01-31T01:16:20.388Z,96301.81
2023-01-31T01:18:49.272Z,96305.50
2023-01-31T01:21:19.347Z,96308.34
2023-01-31T01:23:48.110Z,96307.44
2023-01-31T01:26:19.108Z,96301.66
2023-01-31T01:28:47.245Z,96299.84
2023-01-31T01:31:17.509Z,96305.44
2023-01-31T01:33:46.921Z,96302.56
2023-01-31T01:36:18.199Z,96292.44
2023-01-31T01:38:46.746Z,96297.78
2023-01-31T01:41:15.883Z,96290.16
2023-01-31T01:43:47.154Z,96296.31
2023-01-31T01:46:19.611Z,96296.59
2023-01-31T01:48:51.939Z,96295.72
2023-01-31T01:51:21.432Z,96299.63
2023-01-31T01:53:53.908Z,96307.69
2023-01-31T01:56:26.147Z,96304.81
2023-01-31T01:59:02.414Z,96305.88
2023-01-31T02:01:34.814Z,96311.34
2023-01-31T02:04:11.606Z,96299.69
2023-01-31T02:06:40.006Z,96307.78
2023-01-31T02:09:14.647Z,96323.00
2023-01-31T02:11:43.820Z,96326.38
2023-01-31T02:14:13.522Z,96323.00
2023-01-31T02:16:41.198Z,96328.78
2023-01-31T02:19:36.946Z,96326.47
2023-01-31T02:22:17.687Z,96330.03
2023-01-31T02:25:12.105Z,96337.97
2023-01-31T02:28:10.202Z,96334.34
2023-01-31T02:31:01.330Z,96336.94
2023-01-31T02:33:39.464Z,96326.75
2023-01-31T02:36:19.761Z,96325.91
2023-01-31T02:39:01.496Z,96324.81
2023-01-31T02:41:37.164Z,96314.16
2023-01-31T02:44:42.622Z,96324.09
2023-01-31T02:47:20.884Z,96318.88
2023-01-31T02:49:56.439Z,96322.66
2023-01-31T02:52:33.513Z,96332.97
2023-01-31T02:55:29.943Z,96336.13
2023-01-31T02:58:01.773Z,96343.16
2023-01-31T03:00:33.037Z,96352.78
2023-01-31T03:03:01.076Z,96348.94
2023-01-31T03:05:31.093Z,96356.72
2023-01-31T03:08:05.314Z,96345.31
2023-01-31T03:10:58.002Z,96356.38
2023-01-31T03:13:36.890Z,96366.00
2023-01-31T03:16:33.860Z,96356.13
2023-01-31T03:19:13.795Z,96349.66
2023-01-31T03:21:48.427Z,96356.09
2023-01-31T03:24:18.200Z,96355.25
2023-01-31T03:26:48.103Z,96340.56
2023-01-31T03:29:18.603Z,96360.06
2023-01-31T03:31:54.513Z,96357.38
2023-01-31T03:34:22.283Z,96355.50
2023-01-31T03:36:56.986Z,96360.69
2023-01-31T03:39:41.181Z,96372.56
2023-01-31T03:42:18.639Z,96366.31
2023-01-31T03:44:57.244Z,96371.44
2023-01-31T03:47:30.306Z,96368.19
2023-01-31T03:50:02.486Z,96372.31
2023-01-31T03:52:36.170Z,96372.34
2023-01-31T03:55:09.157Z,96385.13
2023-01-31T03:57:42.458Z,96397.06
2023-01-31T04:00:16.359Z,96390.22
2023-01-31T04:02:55.404Z,96389.19
2023-01-31T04:05:30.496Z,96383.78
2023-01-31T04:08:01.382Z,96392.28
2023-01-31T04:10:32.266Z,96385.66
2023-01-31T04:13:01.712Z,96390.84
2023-01-31T04:15:29.475Z,96401.25
2023-01-31T04:17:57.136Z,96401.13
2023-01-31T04:20:25.134Z,96399.38
2023-01-31T04:22:53.051Z,96411.16
2023-01-31T04:25:22.371Z,96421.38
2023-01-31T04:27:51.869Z,96422.97
2023-01-31T04:30:19.711Z,96421.59
2023-01-31T04:32:48.525Z,96428.47
2023-01-31T04:35:16.339Z,96427.47
2023-01-31T04:37:44.390Z,96424.63
2023-01-31T04:40:13.887Z,96432.25
2023-01-31T04:42:43.197Z,96435.72
2023-01-31T04:45:12.005Z,96426.56
2023-01-31T04:47:39.916Z,96431.47
2023-01-31T04:50:08.834Z,96443.00
2023-01-31T04:52:36.997Z,96432.81
2023-01-31T04:55:04.856Z,96444.53
2023-01-31T04:57:32.854Z,96440.28
2023-01-31T05:00:01.830Z,96454.63
2023-01-31T05:02:31.994Z,96459.41
2023-01-31T05:05:00.133Z,96463.75
2023-01-31T05:07:27.764Z,96458.38
2023-01-31T05:09:55.709Z,96460.03
2023-01-31T05:12:23.515Z,96459.81
2023-01-31T05:14:52.434Z,96450.28
2023-01-31T05:17:26.701Z,96452.25
2023-01-31T05:19:54.663Z,96450.78
2023-01-31T05:22:22.978Z,96445.56
2023-01-31T05:24:52.048Z,96449.44
2023-01-31T05:27:20.349Z,96457.13
2023-01-31T05:29:48.193Z,96463.97
2023-01-31T05:32:17.662Z,96460.84
2023-01-31T05:34:46.738Z,96467.50
2023-01-31T05:37:14.344Z,96466.88
2023-01-31T05:39:43.084Z,96473.31
2023-01-31T05:42:10.743Z,96474.28
2023-01-31T05:44:38.876Z,96468.00
2023-01-31T05:47:06.531Z,96472.84
2023-01-31T05:49:34.736Z,96470.78
2023-01-31T05:52:03.644Z,96476.84
2023-01-31T05:54:32.556Z,96468.91
2023-01-31T05:57:00.331Z,96472.47
2023-01-31T05:59:31.125Z,96467.22
2023-01-31T06:01:58.789Z,96463.47
2023-01-31T06:04:26.441Z,96466.56
2023-01-31T06:06:54.010Z,96462.09
2023-01-31T06:09:23.388Z,96462.50
2023-01-31T06:11:50.976Z,96464.28
2023-01-31T06:14:18.989Z,96457.00
2023-01-31T06:16:46.717Z,96455.38
2023-01-31T06:19:14.813Z,96448.63
2023-01-31T06:21:43.015Z,96448.09
2023-01-31T06:24:11.008Z,96448.94
2023-01-31T06:26:39.999Z,96454.81
2023-01-31T06:29:09.578Z,96450.84
2023-01-31T06:31:37.341Z,96464.69
2023-01-31T06:34:04.952Z,96457.19
2023-01-31T06:36:34.062Z,96465.13
2023-01-31T06:39:01.747Z,96463.31
2023-01-31T06:41:29.789Z,96470.38
2023-01-31T06:43:58.794Z,96478.28
2023-01-31T06:46:27.046Z,96480.34
2023-01-31T06:48:54.749Z,96479.97
2023-01-31T06:51:22.829Z,96484.94
2023-01-31T06:53:51.185Z,96489.97
2023-01-31T06:56:19.111Z,96475.72
2023-01-31T06:58:46.705Z,96481.84
2023-01-31T07:01:16.733Z,96495.47
2023-01-31T07:03:44.387Z,96494.22
2023-01-31T07:06:13.718Z,96486.56
2023-01-31T07:08:41.371Z,96498.94
2023-01-31T07:11:09.411Z,96495.38
2023-01-31T07:13:37.243Z,96506.53
2023-01-31T07:16:05.689Z,96509.34
2023-01-31T07:18:34.645Z,96502.09
2023-01-31T07:21:02.255Z,96500.84
2023-01-31T07:23:30.119Z,96507.59
2023-01-31T07:25:58.510Z,96512.28
2023-01-31T07:28:26.092Z,96502.41
2023-01-31T07:30:53.982Z,96510.09
2023-01-31T07:33:21.620Z,96509.72
2023-01-31T07:35:51.343Z,96509.69
2023-01-31T07:38:19.067Z,96500.09
2023-01-31T07:40:46.808Z,96510.72
2023-01-31T07:43:14.412Z,96510.13
2023-01-31T07:45:42.897Z,96506.06
2023-01-31T07:48:10.756Z,96508.00
2023-01-31T07:50:39.159Z,96489.94
2023-01-31T07:53:08.070Z,96498.06
2023-01-31T07:55:36.157Z,96492.31
2023-01-31T07:58:03.777Z,96500.28
2023-01-31T08:00:49.191Z,96491.75
2023-01-31T08:03:34.401Z,96483.63
2023-01-31T08:06:04.513Z,96491.97
2023-01-31T08:08:34.219Z,96487.97
2023-01-31T08:11:02.516Z,96494.00
2023-01-31T08:13:30.590Z,96495.84
2023-01-31T08:15:58.911Z,96499.66
2023-01-31T08:18:26.738Z,96494.75
2023-01-31T08:20:55.335Z,96504.78
2023-01-31T08:23:23.449Z,96492.28
2023-01-31T08:25:52.562Z,96493.09
2023-01-31T08:28:20.155Z,96485.84
2023-01-31T08:30:59.232Z,96489.94
2023-01-31T08:33:34.402Z,96493.16
2023-01-31T08:36:09.701Z,96485.22
2023-01-31T08:38:37.309Z,96494.31
2023-01-31T08:41:07.057Z,96497.50
2023-01-31T08:43:45.655Z,96496.16
2023-01-31T08:46:22.416Z,96498.47
2023-01-31T08:48:50.028Z,96502.44
2023-01-31T08:51:18.425Z,96503.41
2023-01-31T08:53:46.324Z,96484.13
2023-01-31T08:56:16.683Z,96498.38
2023-01-31T08:58:46.107Z,96492.22
2023-01-31T09:01:15.748Z,96500.28
2023-01-31T09:03:45.411Z,96502.06
2023-01-31T09:06:16.255Z,96495.16
2023-01-31T09:08:44.050Z,96495.00
2023-01-31T09:11:17.337Z,96482.50
2023-01-31T09:13:47.836Z,96477.41
2023-01-31T09:16:15.910Z,96472.38
2023-01-31T09:18:44.468Z,96464.59
2023-01-31T09:21:13.758Z,96469.50
2023-01-31T09:23:42.808Z,96474.88
2023-01-31T09:26:11.780Z,96470.19
2023-01-31T09:28:42.647Z,96475.75
2023-01-31T09:31:13.211Z,96469.31
2023-01-31T09:33:41.612Z,96471.03
2023-01-31T09:36:11.417Z,96469.22
2023-01-31T09:38:40.506Z,96477.94
2023-01-31T09:41:18.907Z,96483.97
2023-01-31T09:43:52.055Z,96486.34
2023-01-31T09:46:25.398Z,96488.28
2023-01-31T09:48:57.322Z,96478.38
2023-01-31T09:51:24.949Z,96485.22
2023-01-31T09:53:52.613Z,96488.97
2023-01-31T09:56:31.815Z,96495.31
2023-01-31T09:59:06.006Z,96482.88
2023-01-31T10:01:43.798Z,96485.69
2023-01-31T10:04:30.865Z,96487.97
2023-01-31T10:07:05.514Z,96486.28
2023-01-31T10:09:38.377Z,96479.88
2023-01-31T10:12:12.906Z,96487.22
2023-01-31T10:14:47.735Z,96482.25
2023-01-31T10:17:22.384Z,96476.69
2023-01-31T10:19:56.064Z,96473.28
2023-01-31T10:22:33.039Z,96484.47
2023-01-31T10:25:09.184Z,96472.50
2023-01-31T10:27:45.119Z,96461.16
2023-01-31T10:30:19.287Z,96458.88
2023-01-31T10:32:54.525Z,96456.56
2023-01-31T10:35:25.545Z,96450.47
2023-01-31T10:37:56.861Z,96444.72
2023-01-31T10:40:31.688Z,96447.59
2023-01-31T10:43:04.549Z,96449.06
2023-01-31T10:45:34.079Z,96438.09
2023-01-31T10:48:15.460Z,96429.72
2023-01-31T10:50:55.114Z,96433.63
2023-01-31T10:53:40.353Z,96431.53
2023-01-31T10:56:10.555Z,96420.03
2023-01-31T10:58:39.242Z,96432.03
2023-01-31T11:01:11.870Z,96430.31
2023-01-31T11:03:46.110Z,96430.75
2023-01-31T11:06:13.884Z,96411.38
2023-01-31T11:08:44.562Z,96413.16
2023-01-31T11:11:14.072Z,96400.28
2023-01-31T11:13:42.919Z,96402.56
2023-01-31T11:16:13.165Z,96388.94
2023-01-31T11:18:47.012Z,96379.03
2023-01-31T11:21:23.561Z,96373.81
2023-01-31T11:23:52.568Z,96369.22
2023-01-31T11:26:30.159Z,96372.81
2023-01-31T11:28:58.332Z,96370.34
2023-01-31T11:31:31.434Z,96370.22
2023-01-31T11:34:02.233Z,96365.78
2023-01-31T11:36:33.879Z,96367.03
2023-01-31T11:39:19.094Z,96349.59
2023-01-31T11:41:49.297Z,96341.25
2023-01-31T11:44:19.773Z,96329.63
2023-01-31T11:46:52.944Z,96342.38
2023-01-31T11:49:32.815Z,96326.66
2023-01-31T11:52:04.060Z,96322.00
2023-01-31T11:54:35.432Z,96304.63
2023-01-31T11:57:03.695Z,96308.03
2023-01-31T11:59:32.449Z,96312.72
2023-01-31T12:02:02.071Z,96290.41
2023-01-31T12:04:41.345Z,96303.59
2023-01-31T12:07:23.881Z,96324.13
2023-01-31T12:09:52.535Z,96314.19
2023-01-31T12:12:29.779Z,96326.16
2023-01-31T12:15:01.332Z,96319.75
2023-01-31T12:17:31.671Z,96314.56
2023-01-31T12:20:28.228Z,96322.16
2023-01-31T12:23:08.209Z,96303.81
2023-01-31T12:25:49.719Z,96304.47
2023-01-31T12:28:29.959Z,96312.91
2023-01-31T12:31:11.794Z,96324.66
2023-01-31T12:33:54.279Z,96314.66
2023-01-31T12:36:41.429Z,96303.34
2023-01-31T12:39:20.107Z,96305.59
2023-01-31T12:42:03.339Z,96305.69
2023-01-31T12:44:43.422Z,96278.00
2023-01-31T12:47:31.750Z,96269.50
2023-01-31T12:50:14.981Z,96273.31
2023-01-31T12:52:57.550Z,96279.41
2023-01-31T12:55:34.162Z,96279.78
2023-01-31T12:58:24.977Z,96265.13
2023-01-31T13:01:02.153Z,96255.84
2023-01-31T13:03:40.549Z,96271.91
2023-01-31T13:06:15.677Z,96261.44
2023-01-31T13:09:06.320Z,96258.69
2023-01-31T13:11:41.957Z,96253.66
2023-01-31T13:14:15.858Z,96252.88
2023-01-31T13:16:46.336Z,96230.59
2023-01-31T13:19:19.878Z,96227.81
2023-01-31T13:21:49.808Z,96221.19
2023-01-31T13:24:22.676Z,96221.63
2023-01-31T13:26:55.825Z,96207.44
2023-01-31T13:29:28.129Z,96224.16
2023-01-31T13:32:00.771Z,96221.38
2023-01-31T13:34:32.756Z,96207.97
2023-01-31T13:37:03.773Z,96216.03
2023-01-31T13:39:39.834Z,96221.84
2023-01-31T13:42:07.554Z,96228.09
2023-01-31T13:44:35.720Z,96218.59
2023-01-31T13:47:13.254Z,96228.00
2023-01-31T13:49:48.668Z,96213.56
2023-01-31T13:52:22.702Z,96203.19
2023-01-31T13:54:55.677Z,96201.56
2023-01-31T13:57:27.050Z,96205.69
2023-01-31T13:59:57.708Z,96200.50
2023-01-31T14:02:25.503Z,96218.50
2023-01-31T14:04:53.536Z,96221.19
2023-01-31T14:07:23.927Z,96209.50
2023-01-31T14:10:25.217Z,96214.47
2023-01-31T14:13:27.884Z,96218.41
2023-01-31T14:15:58.143Z,96207.88
2023-01-31T14:18:39.943Z,96197.44
2023-01-31T14:21:57.710Z,96194.47
2023-01-31T14:25:05.253Z,96198.22
2023-01-31T14:27:42.804Z,96194.72
2023-01-31T14:30:24.405Z,96193.25
2023-01-31T14:33:05.597Z,96188.06
2023-01-31T14:35:48.696Z,96188.28
2023-01-31T14:38:25.100Z,96196.63
2023-01-31T14:41:04.522Z,96193.81
2023-01-31T14:43:46.638Z,96204.34
2023-01-31T14:46:32.374Z,96205.03
2023-01-31T14:49:25.130Z,96213.28
2023-01-31T14:52:11.080Z,96215.44
2023-01-31T14:54:57.441Z,96220.88
2023-01-31T14:57:28.860Z,96218.41
2023-01-31T15:00:01.365Z,96209.78
2023-01-31T15:02:57.238Z,96210.66
2023-01-31T15:05:41.174Z,96201.59
2023-01-31T15:08:43.833Z,96202.78
2023-01-31T15:11:42.409Z,96204.81
2023-01-31T15:14:35.810Z,96193.59
2023-01-31T15:17:23.655Z,96180.34
2023-01-31T15:20:15.384Z,96165.91
2023-01-31T15:22:45.494Z,96169.22
2023-01-31T15:25:25.386Z,96172.28
2023-01-31T15:27:56.432Z,96184.59
2023-01-31T15:30:25.662Z,96173.69
2023-01-31T15:32:58.015Z,96176.03
2023-01-31T15:35:30.949Z,96185.59
2023-01-31T15:38:04.652Z,96172.88
2023-01-31T15:40:32.880Z,96178.50
2023-01-31T15:43:17.517Z,96185.13
2023-01-31T15:45:45.322Z,96191.13
2023-01-31T15:48:16.527Z,96192.56
2023-01-31T15:50:54.503Z,96184.75
2023-01-31T15:53:24.245Z,96170.25
2023-01-31T15:55:55.064Z,96164.81
2023-01-31T15:58:25.647Z,96173.66
2023-01-31T16:00:55.871Z,96165.59
2023-01-31T16:03:25.857Z,96152.84
2023-01-31T16:05:57.544Z,96160.38
2023-01-31T16:08:30.145Z,96158.13
2023-01-31T16:10:59.140Z,96161.78
2023-01-31T16:13:27.774Z,96184.91
2023-01-31T16:15:55.641Z,96189.78
2023-01-31T16:18:23.607Z,96193.94
2023-01-31T16:20:53.392Z,96201.56
2023-01-31T16:23:27.908Z,96208.25
2023-01-31T16:26:02.445Z,96193.28
2023-01-31T16:28:33.053Z,96200.47
2023-01-31T16:31:10.449Z,96202.38
2023-01-31T16:33:39.442Z,96201.28
2023-01-31T16:36:15.070Z,96211.66
2023-01-31T16:38:57.539Z,96199.94
2023-01-31T16:41:40.907Z,96195.47
2023-01-31T16:44:14.912Z,96201.09
2023-01-31T16:46:45.397Z,96216.94
2023-01-31T16:49:21.507Z,96225.78
2023-01-31T16:51:50.285Z,96230.06
2023-01-31T16:54:23.364Z,96234.41
2023-01-31T16:57:20.740Z,96246.06
2023-01-31T16:59:53.216Z,96231.94
2023-01-31T17:02:27.042Z,96238.19
2023-01-31T17:04:58.336Z,96236.88
2023-01-31T17:07:30.161Z,96246.03
2023-01-31T17:10:01.923Z,96257.47
2023-01-31T17:12:31.797Z,96250.69
2023-01-31T17:15:03.160Z,96246.19
2023-01-31T17:17:37.340Z,96247.38
2023-01-31T17:20:09.288Z,96243.81
2023-01-31T17:22:36.927Z,96238.94
2023-01-31T17:25:15.307Z,96243.59
2023-01-31T17:27:42.895Z,96229.13
2023-01-31T17:30:11.631Z,96234.34
2023-01-31T17:32:40.024Z,96232.94
2023-01-31T17:35:18.013Z,96240.72
2023-01-31T17:37:45.704Z,96244.50
2023-01-31T17:40:15.412Z,96245.25
2023-01-31T17:42:43.447Z,96240.31
2023-01-31T17:45:15.135Z,96244.72
2023-01-31T17:47:42.825Z,96237.16
2023-01-31T17:50:16.776Z,96234.31
2023-01-31T17:52:44.736Z,96245.25
2023-01-31T17:55:13.856Z,96246.25
2023-01-31T17:57:42.825Z,96245.75
2023-01-31T18:00:15.756Z,96251.72
2023-01-31T18:02:43.638Z,96249.19
2023-01-31T18:05:12.848Z,96246.69
2023-01-31T18:07:41.107Z,96252.41
2023-01-31T18:10:11.024Z,96245.94
2023-01-31T18:12:38.889Z,96252.50
2023-01-31T18:15:09.834Z,96254.00
2023-01-31T18:17:37.455Z,96251.69
2023-01-31T18:20:06.711Z,96244.09
2023-01-31T18:22:34.398Z,96241.31
2023-01-31T18:25:02.453Z,96238.25
2023-01-31T18:27:30.015Z,96248.81
2023-01-31T18:29:58.096Z,96240.44
2023-01-31T18:32:27.102Z,96252.09
2023-01-31T18:34:54.913Z,96266.06
2023-01-31T18:37:22.507Z,96248.47
2023-01-31T18:39:50.743Z,96245.25
2023-01-31T18:42:19.030Z,96241.53
2023-01-31T18:44:47.071Z,96242.28
2023-01-31T18:47:15.869Z,96242.03
2023-01-31T18:49:45.239Z,96260.69
2023-01-31T18:52:12.940Z,96264.59
2023-01-31T18:54:41.453Z,96241.75
2023-01-31T18:57:09.206Z,96255.88
2023-01-31T18:59:36.823Z,96262.41
2023-01-31T19:02:04.536Z,96254.84
2023-01-31T19:04:32.221Z,96250.50
2023-01-31T19:07:01.892Z,96260.50
2023-01-31T19:09:29.681Z,96257.41
2023-01-31T19:11:57.255Z,96267.25
2023-01-31T19:14:25.155Z,96267.50
2023-01-31T19:16:53.034Z,96282.22
2023-01-31T19:19:21.052Z,96262.97
2023-01-31T19:21:48.651Z,96252.31
2023-01-31T19:24:17.685Z,96265.09
2023-01-31T19:26:45.708Z,96246.38
2023-01-31T19:29:16.006Z,96252.59
2023-01-31T19:31:44.757Z,96257.53
2023-01-31T19:34:12.419Z,96252.66
2023-01-31T19:36:41.691Z,96254.97
2023-01-31T19:39:12.335Z,96248.22
2023-01-31T19:41:42.352Z,96260.13
2023-01-31T19:44:10.504Z,96263.31
2023-01-31T19:46:38.923Z,96253.41
2023-01-31T19:49:06.791Z,96247.44
2023-01-31T19:51:35.416Z,96246.50
2023-01-31T19:54:03.555Z,96248.53
2023-01-31T19:56:33.027Z,96210.91
2023-01-31T19:59:02.640Z,96216.13
2023-01-31T20:01:30.372Z,96222.94
2023-01-31T20:03:58.223Z,96235.34
2023-01-31T20:06:29.244Z,96227.03
2023-01-31T20:08:58.998Z,96235.34
2023-01-31T20:11:29.072Z,96254.31
2023-01-31T20:13:58.439Z,96267.31
2023-01-31T20:16:27.808Z,96266.66
2023-01-31T20:18:56.183Z,96263.44
2023-01-31T20:21:24.360Z,96241.72
2023-01-31T20:23:51.992Z,96262.41
2023-01-31T20:26:20.833Z,96265.41
2023-01-31T20:28:49.324Z,96264.97
2023-01-31T20:31:17.665Z,96270.72
2023-01-31T20:33:46.741Z,96263.28
2023-01-31T20:36:15.354Z,96263.66
2023-01-31T20:38:42.970Z,96259.28
2023-01-31T20:41:10.933Z,96251.66
2023-01-31T20:43:39.040Z,96247.19
2023-01-31T20:46:08.764Z,96247.88
2023-01-31T20:48:36.628Z,96248.91
2023-01-31T20:51:06.364Z,96248.19
2023-01-31T20:53:34.470Z,96241.25
2023-01-31T20:56:03.462Z,96238.25
2023-01-31T20:58:32.743Z,96251.97
2023-01-31T21:01:00.879Z,96252.19
2023-01-31T21:03:29.699Z,96263.34
2023-01-31T21:05:59.328Z,96264.69
2023-01-31T21:08:29.537Z,96261.03
2023-01-31T21:10:59.786Z,96251.53
2023-01-31T21:13:28.989Z,96240.78
2023-01-31T21:15:58.423Z,96246.91
2023-01-31T21:18:28.744Z,96251.97
2023-01-31T21:20:56.372Z,96251.75
2023-01-31T21:23:28.509Z,96262.84
2023-01-31T21:26:01.722Z,96261.59
2023-01-31T21:28:29.366Z,96255.69
2023-01-31T21:31:00.448Z,96242.56
2023-01-31T21:33:29.122Z,96257.63
2023-01-31T21:35:58.301Z,96250.06
2023-01-31T21:38:26.448Z,96248.53
2023-01-31T21:41:15.915Z,96251.09
2023-01-31T21:43:42.558Z,96253.56
2023-01-31T21:46:10.621Z,96249.09
2023-01-31T21:48:41.581Z,96234.00
2023-01-31T21:51:11.468Z,96235.50
2023-01-31T21:53:40.388Z,96220.28
2023-01-31T21:56:11.480Z,96213.47
2023-01-31T21:58:40.061Z,96206.94
2023-01-31T22:01:10.700Z,96207.44
2023-01-31T22:03:42.618Z,96208.13
2023-01-31T22:06:12.618Z,96195.28
2023-01-31T22:08:41.345Z,96194.19
2023-01-31T22:11:12.750Z,96188.25
2023-01-31T22:13:58.854Z,96191.41
2023-01-31T22:16:26.821Z,96190.72
2023-01-31T22:18:55.451Z,96186.97
2023-01-31T22:21:25.777Z,96168.53
2023-01-31T22:23:56.642Z,96164.34
2023-01-31T22:26:27.720Z,96169.91
2023-01-31T22:28:56.961Z,96169.13
2023-01-31T22:31:24.732Z,96168.03
2023-01-31T22:33:54.215Z,96155.56
2023-01-31T22:36:24.067Z,96153.31
2023-01-31T22:38:51.972Z,96150.25
2023-01-31T22:41:20.358Z,96148.06
2023-01-31T22:43:51.762Z,96154.19
2023-01-31T22:46:21.980Z,96159.66
2023-01-31T22:48:50.667Z,96160.09
2023-01-31T22:51:20.060Z,96164.31
2023-01-31T22:53:48.528Z,96172.28
2023-01-31T22:56:18.546Z,96175.66
2023-01-31T22:58:47.229Z,96171.81
2023-01-31T23:01:17.993Z,96180.13
2023-01-31T23:03:46.778Z,96178.47
2023-01-31T23:06:15.267Z,96168.53
2023-01-31T23:08:44.183Z,96182.16
2023-01-31T23:11:14.471Z,96187.25
2023-01-31T23:13:43.168Z,96177.81
2023-01-31T23:16:15.904Z,96183.25
2023-01-31T23:18:45.386Z,96178.47
2023-01-31T23:21:15.219Z,96181.47
2023-01-31T23:23:44.049Z,96175.06
2023-01-31T23:26:12.132Z,96176.34
2023-01-31T23:28:40.423Z,96185.28
2023-01-31T23:31:08.199Z,96171.97
2023-01-31T23:33:36.336Z,96179.53
2023-01-31T23:36:06.111Z,96160.59
2023-01-31T23:38:34.273Z,96161.88
2023-01-31T23:41:01.857Z,96165.13
2023-01-31T23:43:29.864Z,96165.13
2023-01-31T23:45:57.444Z,96158.31
2023-01-31T23:48:25.496Z,96157.97
2023-01-31T23:50:53.386Z,96152.50
2023-01-31T23:53:22.301Z,96152.50
2023-01-31T23:55:49.897Z,96153.03
2023-01-31T23:58:17.471Z,96154.03
